Home > Products > Valid Products > TAF

000
FTUS41 KPHI 230500
TAFABE
TAF
KABE 230538Z 2306/2406 26004KT P6SM FEW250
     FM231200 33004KT P6SM SCT250
     FM240000 VRB02KT P6SM SCT250=



000
FTUS41 KPHI 230500
TAFPNE
TAF
KPNE 230538Z 2306/2406 33006KT P6SM BKN250
     FM231500 02005KT P6SM SCT250
     FM240100 VRB02KT P6SM SCT250=



000
FTUS41 KPHI 230500
TAFRDG
TAF
KRDG 230538Z 2306/2406 27004KT P6SM FEW250
     FM231200 33004KT P6SM SCT250
     FM240000 VRB02KT P6SM SCT250=



000
FTUS41 KPHI 230500
TAFILG
TAF
KILG 230538Z 2306/2406 33008KT P6SM BKN250
     FM231300 36004KT P6SM BKN250
     FM232300 05005KT P6SM SCT250=



000
FTUS41 KPHI 230500
TAFMIV
TAF
KMIV 230538Z 2306/2406 32005KT P6SM BKN250
     FM231300 01005KT P6SM BKN250
     FM232200 08003KT P6SM BKN250=



000
FTUS41 KPHI 230500
TAFACY
TAF
KACY 230538Z 2306/2406 33005KT P6SM BKN250
     FM231400 01007KT P6SM BKN250
     FM231800 08008KT P6SM BKN250=



000
FTUS41 KPHI 230500
TAFPHL
TAF
KPHL 230538Z 2306/2412 33008KT P6SM BKN250
     FM231300 36006KT P6SM BKN250
     FM231700 33005KT P6SM SCT250
     FM240000 05005KT P6SM SCT250=



000
FTUS41 KPHI 230500
TAFTTN
TAF
KTTN 230538Z 2306/2406 33003KT P6SM SCT250
     FM231200 02005KT P6SM SCT250
     FM232200 VRB02KT P6SM SCT250=



000
FTUS41 KPHI 222300
TAFACY
TAF
KACY 222332Z 2300/2324 29005KT P6SM SCT250
      TEMPO 2305/2309 BKN250
     FM231200 01007KT P6SM SCT250
     FM231800 07008KT P6SM SCT250=



000
FTUS41 KPHI 222300
TAFMIV
TAF
KMIV 222332Z 2300/2324 29003KT P6SM SCT250
      TEMPO 2305/2309 BKN250
     FM231200 01005KT P6SM SCT250
     FM232100 VRB03KT P6SM SCT250=



000
FTUS41 KPHI 222300
TAFTTN
TAF
KTTN 222332Z 2300/2324 34005KT P6SM FEW250
     FM231500 02005KT P6SM SCT250=



000
FTUS41 KPHI 222300
TAFILG
TAF
KILG 222332Z 2300/2324 31008KT P6SM SCT250
     FM231200 35004KT P6SM SCT250
     FM232100 VRB03KT P6SM SCT250=



000
FTUS41 KPHI 222300
TAFPHL
TAF
KPHL 222332Z 2300/2406 33010KT P6SM SCT250
     FM230600 34007KT P6SM SCT250
     FM231200 36006KT P6SM SCT250
     FM232000 VRB03KT P6SM FEW060=



000
FTUS41 KPHI 222300
TAFPNE
TAF
KPNE 222332Z 2300/2324 33008KT P6SM SCT250
     FM231200 36005KT P6SM SCT250=



000
FTUS41 KPHI 222300
TAFABE
TAF
KABE 222332Z 2300/2324 32004KT P6SM FEW250=



000
FTUS41 KPHI 222300
TAFRDG
TAF
KRDG 222332Z 2300/2324 32005KT P6SM FEW250=



000
FTUS41 KPHI 222100 AAA
TAFTTN
TAF AMD
KTTN 222102Z 2221/2318 31012G17KT P6SM SKC
     FM222300 32008KT P6SM SKC
     FM230400 36005KT P6SM SKC=



000
FTUS41 KPHI 222100 AAA
TAFPHL
TAF AMD
KPHL 222101Z 2221/2324 31014KT P6SM SCT050
     FM230000 34007KT P6SM FEW250
     FM231200 36008KT P6SM SCT250=



000
FTUS41 KPHI 221900 AAA
TAFMIV
TAF AMD
KMIV 221947Z 2220/2318 32012G20KT P6SM SCT040
      TEMPO 2220/2221 BKN040
     FM222300 34004KT P6SM SKC
     FM231400 01006KT P6SM SKC=



000
FTUS41 KPHI 221700
TAFABE
TAF
KABE 221724Z 2218/2318 33014G22KT P6SM BKN040
      TEMPO 2220/2223 SCT040
     FM222300 32009KT P6SM FEW040
     FM230200 32003KT P6SM SKC=



000
FTUS41 KPHI 221700
TAFPNE
TAF
KPNE 221724Z 2218/2318 32014G24KT P6SM BKN045
      TEMPO 2219/2223 SCT045
     FM222300 31008KT P6SM FEW045
     FM230200 34003KT P6SM SKC=



000
FTUS41 KPHI 221700
TAFILG
TAF
KILG 221724Z 2218/2318 32012G20KT P6SM BKN040
      TEMPO 2219/2223 SCT040
     FM222300 32008KT P6SM FEW040
     FM230200 33004KT P6SM SKC=



000
FTUS41 KPHI 221700
TAFPHL
TAF
KPHL 221724Z 2218/2324 32015G19KT P6SM BKN045
      TEMPO 2219/2223 SCT045
     FM222300 31008KT P6SM FEW045
     FM230200 34005KT P6SM SKC=



000
FTUS41 KPHI 221700
TAFMIV
TAF
KMIV 221724Z 2218/2318 30014G18KT P6SM SCT040
      TEMPO 2218/2221 BKN040
     FM222300 34004KT P6SM SKC
     FM231400 01006KT P6SM SKC=



000
FTUS41 KPHI 221700
TAFTTN
TAF
KTTN 221724Z 2218/2318 34014G22KT P6SM BKN040
      TEMPO 2220/2223 SCT040
     FM222300 32008KT P6SM FEW040
     FM230200 35004KT P6SM SKC=



000
FTUS41 KPHI 221700
TAFRDG
TAF
KRDG 221724Z 2218/2318 32014G24KT P6SM BKN040
      TEMPO 2220/2223 SCT040
     FM222300 31009KT P6SM FEW040
     FM230200 32003KT P6SM SKC=



000
FTUS41 KPHI 221700
TAFACY
TAF
KACY 221724Z 2218/2318 31011G18KT P6SM SCT040
      TEMPO 2218/2222 BKN040
     FM222300 31006KT P6SM SKC
     FM231400 01006KT P6SM SKC=



000
FTUS41 KPHI 221500 AAA
TAFACY
TAF AMD
KACY 221527Z 2215/2312 29012G20KT P6SM SCT040
      TEMPO 2217/2219 BKN040
     FM222200 31012KT P6SM SKC
     FM230300 32005KT P6SM SCT250=



000
FTUS41 KPHI 221500 AAA
TAFILG
TAF AMD
KILG 221526Z 2215/2312 31013G22KT P6SM SCT040
      TEMPO 2216/2219 BKN040
     FM222200 32012KT P6SM SKC
     FM230300 33005KT P6SM SCT250=



000
FTUS41 KPHI 221500 AAA
TAFMIV
TAF AMD
KMIV 221526Z 2215/2312 33015G22KT P6SM SCT040
      TEMPO 2217/2219 BKN040
     FM222200 32010KT P6SM SKC
     FM230300 33003KT P6SM SCT250=



000
FTUS41 KPHI 221500 AAA
TAFPNE
TAF AMD
KPNE 221525Z 2215/2312 32012G22KT P6SM SCT040
      TEMPO 2216/2219 BKN040
     FM222300 33010KT P6SM SKC
     FM230300 33004KT P6SM SCT250=



000
FTUS41 KPHI 221500 AAA
TAFPHL
TAF AMD
KPHL 221525Z 2215/2318 31014G22KT P6SM SCT040
      TEMPO 2216/2219 BKN040
     FM222300 31012KT P6SM SKC
     FM230400 33005KT P6SM SCT250=



000
FTUS41 KPHI 221500 AAA
TAFTTN
TAF AMD
KTTN 221524Z 2215/2312 30012G20KT P6SM SCT040
      TEMPO 2215/2219 BKN040
     FM222300 32012KT P6SM SKC
     FM230300 35004KT P6SM SCT250=



000
FTUS41 KPHI 221500 AAA
TAFABE
TAF AMD
KABE 221523Z 2215/2312 31012G20KT P6SM BKN045
     FM222200 31012KT P6SM SCT045
     FM230300 32004KT P6SM SCT250=



000
FTUS41 KPHI 221500 AAA
TAFRDG
TAF AMD
KRDG 221522Z 2215/2312 30014G24KT P6SM BKN040
     FM222100 31012KT P6SM SCT040
     FM230300 32003KT P6SM SCT250=



000
FTUS41 KPHI 221100
TAFPHL
TAF
KPHL 221120Z 2212/2318 27012KT P6SM SKC
     FM221400 31016G23KT P6SM SCT035
     FM222300 31012KT P6SM SKC
     FM230400 33005KT P6SM SCT250=



000
FTUS41 KPHI 221100
TAFRDG
TAF
KRDG 221120Z 2212/2312 27010KT P6SM FEW040
     FM221400 31016G22KT P6SM SCT040
     FM222200 31012KT P6SM SKC
     FM230300 32003KT P6SM SCT250=



000
FTUS41 KPHI 221100
TAFABE
TAF
KABE 221120Z 2212/2312 28010KT P6SM FEW040
     FM221400 30014G22KT P6SM SCT040
     FM222200 31012KT P6SM SKC
     FM230300 32004KT P6SM SCT250=



000
FTUS41 KPHI 221100
TAFTTN
TAF
KTTN 221120Z 2212/2312 29010KT P6SM SKC
     FM221400 33013G22KT P6SM SCT035
     FM222300 34010KT P6SM SKC
     FM230300 35004KT P6SM SCT250=



000
FTUS41 KPHI 221100
TAFPNE
TAF
KPNE 221120Z 2212/2312 29011KT P6SM SKC
     FM221400 32016G23KT P6SM SCT035
     FM222300 33010KT P6SM SKC
     FM230300 33004KT P6SM SCT250=



000
FTUS41 KPHI 221100
TAFILG
TAF
KILG 221120Z 2212/2312 29010KT P6SM SKC
     FM221400 31016G22KT P6SM SCT035
     FM222200 32012KT P6SM SKC
     FM230300 33005KT P6SM SCT250=



000
FTUS41 KPHI 221100
TAFACY
TAF
KACY 221120Z 2212/2312 28010KT P6SM SKC
     FM221400 30016G22KT P6SM SCT035
     FM222200 31012KT P6SM SKC
     FM230300 32005KT P6SM SCT250=



000
FTUS41 KPHI 221100
TAFMIV
TAF
KMIV 221120Z 2212/2312 29009KT P6SM SKC
     FM221400 30014G20KT P6SM SCT035
     FM222200 32010KT P6SM SKC
     FM230300 33003KT P6SM SCT250=



000
FTUS41 KPHI 220900 AAA
TAFTTN
TAF AMD
KTTN 220900Z 2209/2306 28006KT P6SM SCT150
     FM221100 28010G16KT P6SM SCT025 BKN035
     FM221400 33015G22KT P6SM BKN035
     FM222300 34010KT P6SM SKC
     FM230300 35004KT P6SM SKC=



000
FTUS41 KPHI 220900 AAA
TAFPNE
TAF AMD
KPNE 220900Z 2209/2306 29008KT P6SM SCT150
     FM221100 29010G18KT P6SM SCT025 BKN035
     FM221400 32017G23KT P6SM BKN035
     FM222300 33010KT P6SM SKC
     FM230300 33004KT P6SM SKC=



000
FTUS41 KPHI 220900 AAA
TAFMIV
TAF AMD
KMIV 220900Z 2209/2306 28006KT P6SM SCT150
     FM221100 29008G15KT P6SM SCT035
     FM221400 30012G20KT P6SM SCT035
     FM222200 32010KT P6SM SKC
     FM230300 33003KT P6SM SKC=



000
FTUS41 KPHI 220900 AAA
TAFABE
TAF AMD
KABE 220900Z 2209/2306 26006KT P6SM SCT200
     FM221000 29010G16KT P6SM SCT025 BKN035
     FM221400 30016G22KT P6SM BKN035
     FM222200 31012KT P6SM SKC
     FM230300 32004KT P6SM SKC=



000
FTUS41 KPHI 220900 AAA
TAFILG
TAF AMD
KILG 220900Z 2209/2306 29010KT P6SM SCT150
     FM221100 29008G18KT P6SM SCT025 BKN035
     FM221400 31016G22KT P6SM SCT035
     FM222200 32012KT P6SM SKC
     FM230300 33005KT P6SM SKC=



000
FTUS41 KPHI 220900 AAA
TAFPHL
TAF AMD
KPHL 220900Z 2209/2312 27010KT P6SM SCT150
     FM221100 29010G18KT P6SM SCT025 BKN035
     FM221400 31016G23KT P6SM SCT035
     FM222300 31012KT P6SM SKC
     FM230400 33005KT P6SM SKC=



000
FTUS41 KPHI 220900 AAA
TAFRDG
TAF AMD
KRDG 220900Z 2209/2306 24006KT P6SM SCT200
     FM221000 29010G16KT P6SM SCT025 BKN035
     FM221400 31016G22KT P6SM BKN035
     FM222200 31012KT P6SM SKC
     FM230300 32003KT P6SM SKC=



000
FTUS41 KPHI 220900 AAA
TAFACY
TAF AMD
KACY 220900Z 2209/2306 28007KT P6SM SCT150
     FM221100 29008G15KT P6SM SCT035
     FM221400 30016G22KT P6SM SCT035
     FM222200 31012KT P6SM SKC
     FM230300 32005KT P6SM SKC=



000
FTUS41 KPHI 220500 RRA
TAFMIV
TAF
KMIV 220541Z 2206/2306 28008KT P6SM BKN060 BKN090
     FM221000 29008G15KT P6SM SCT025 BKN035
     FM221300 30012G20KT P6SM BKN035
     FM222200 32010KT P6SM SKC
     FM230300 33003KT P6SM SKC=



000
FTUS41 KPHI 220500 RRA
TAFRDG
TAF
KRDG 220541Z 2206/2306 29008G16KT P6SM SCT200
     FM220800 29010G18KT P6SM SCT025 BKN035
     FM221300 31016G22KT P6SM BKN035
     FM222200 31012KT P6SM SKC
     FM230300 32003KT P6SM SKC=



000
FTUS41 KPHI 220500 RRA
TAFILG
TAF
KILG 220541Z 2206/2306 29008G16KT P6SM SCT100 BKN150
     FM220900 29008G18KT P6SM SCT025 BKN035
     FM221300 31016G22KT P6SM BKN035
     FM222200 32012KT P6SM SKC
     FM230300 33005KT P6SM SKC=



000
FTUS41 KPHI 220500 RRA
TAFABE
TAF
KABE 220541Z 2206/2306 29008G18KT P6SM SCT200
     FM220800 29010G18KT P6SM SCT025 BKN035
     FM221300 30016G22KT P6SM BKN035
     FM222200 31012KT P6SM SKC
     FM230300 32004KT P6SM SKC=



000
FTUS41 KPHI 220500 RRA
TAFTTN
TAF
KTTN 220541Z 2206/2306 30010G16KT P6SM SCT200
     FM220900 28010G18KT P6SM SCT025 BKN035
     FM221300 33015G22KT P6SM BKN035
     FM222300 34010KT P6SM SKC
     FM230300 35004KT P6SM SKC=



000
FTUS41 KPHI 220500 RRA
TAFACY
TAF
KACY 220541Z 2206/2306 26007KT P6SM SCT050 BKN090
     FM221000 29008G15KT P6SM SCT025 BKN035
     FM221300 30016G22KT P6SM BKN035
     FM222200 31012KT P6SM SKC
     FM230300 32005KT P6SM SKC=



000
FTUS41 KPHI 220500 RRA
TAFPHL
TAF
KPHL 220541Z 2206/2312 29010G18KT P6SM SCT070 BKN150
     FM220900 29010G20KT P6SM SCT025 BKN035
     FM221300 31016G23KT P6SM BKN035
     FM222300 31012KT P6SM SKC
     FM230400 33005KT P6SM SKC=



000
FTUS41 KPHI 220500 RRA
TAFPNE
TAF
KPNE 220541Z 2206/2306 29010G18KT P6SM SCT200
     FM220900 29010G18KT P6SM SCT025 BKN035
     FM221300 32017G23KT P6SM BKN035
     FM222300 33010KT P6SM SKC
     FM230300 33004KT P6SM SKC=



000
FTUS41 KPHI 220300 AAA
TAFACY
TAF AMD
KACY 220313Z 2203/2224 21007KT P6SM SCT060 BKN200
     FM220700 27006KT P6SM SCT050
     FM221300 30012G22KT P6SM FEW050
     FM222200 30007KT P6SM SKC=



000
FTUS41 KPHI 220300 AAA
TAFILG
TAF AMD
KILG 220312Z 2203/2224 28008KT P6SM BKN050
     FM221300 30012G20KT P6SM FEW050
     FM222200 32010KT P6SM SKC=



000
FTUS41 KPHI 220300 AAB
TAFPHL
TAF AMD
KPHL 220312Z 2203/2306 26008KT P6SM SCT045 BKN060
      TEMPO 2203/2204 26010G20KT -SHRA
     FM221300 32012G20KT P6SM FEW050
     FM222300 33011KT P6SM SKC=



000
FTUS41 KPHI 220300 AAB
TAFPNE
TAF AMD
KPNE 220310Z 2203/2224 26008KT P6SM BKN070
      TEMPO 2203/2204 26012G20KT -SHRA
     FM221300 32012G20KT P6SM FEW050
     FM222300 33008KT P6SM SKC=



000
FTUS41 KPHI 220100 CCB
TAFPHL
TAF COR
KPHL 220119Z 2201/2306 14005KT P6SM FEW025 BKN200
      TEMPO 2202/2203 VRB15G25KT 5SM -SHRA BR OVC050
     FM220400 27007KT P6SM SCT050
     FM221300 32012G20KT P6SM FEW050
     FM222300 33011KT P6SM SKC=



000
FTUS41 KPHI 220100 CCA
TAFTTN
TAF COR
KTTN 220118Z 2201/2224 21005KT P6SM FEW025 BKN200
      TEMPO 2202/2203 VRB15G25KT 5SM -SHRA BR OVC050
     FM220400 27007KT P6SM SCT050
     FM221300 32012G20KT P6SM FEW050
     FM222300 33008KT P6SM SKC=



000
FTUS41 KPHI 220100 CCB
TAFPNE
TAF COR
KPNE 220118Z 2201/2224 23005KT P6SM FEW025 BKN200
      TEMPO 2202/2203 VRB15G25KT 5SM -SHRA BKN050
     FM220400 27007KT P6SM SCT050
     FM221300 32012G20KT P6SM FEW050
     FM222300 33008KT P6SM SKC=



000
FTUS41 KPHI 220100 CCA
TAFPNE
TAF COR
KPNE 220112Z 2201/2224 23005KT P6SM FEW025 BKN200
      TEMPO 2202/2203 5SM -SHRA BKN050
     FM220400 27007KT P6SM SCT050
     FM221300 32012G20KT P6SM FEW050
     FM222300 33008KT P6SM SKC=



000
FTUS41 KPHI 220100 CCA
TAFPHL
TAF COR
KPHL 220112Z 2201/2306 14005KT P6SM FEW025 BKN200
      TEMPO 2202/2203 5SM -SHRA BR OVC050
     FM220400 27007KT P6SM SCT050
     FM221300 32012G20KT P6SM FEW050
     FM222300 33011KT P6SM SKC=



000
FTUS41 KPHI 220100 AAA
TAFTTN
TAF AMD
KTTN 220112Z 2201/2224 21005KT P6SM FEW025 BKN200
      TEMPO 2202/2203 5SM -SHRA BR OVC050
     FM220400 27007KT P6SM SCT050
     FM221300 32012G20KT P6SM FEW050
     FM222300 33008KT P6SM SKC=



000
FTUS41 KPHI 220100 AAA
TAFPNE
TAF AMD
KPNE 220111Z 2201/2224 23005KT P6SM FEW025 BKN200
      TEMPO 2203/2204 5SM -SHRA BKN050
     FM220400 27007KT P6SM SCT050
     FM221300 32012G20KT P6SM FEW050
     FM222300 33008KT P6SM SKC=



000
FTUS41 KPHI 220100 AAA
TAFPHL
TAF AMD
KPHL 220109Z 2201/2306 14005KT P6SM FEW025 BKN200
      TEMPO 2203/2204 5SM -SHRA BR OVC050
     FM220400 27007KT P6SM SCT050
     FM221300 32012G20KT P6SM FEW050
     FM222300 33011KT P6SM SKC=



000
FTUS41 KPHI 220000 AAA
TAFRDG
TAF AMD
KRDG 220057Z 2201/2224 20005KT P6SM FEW025 BKN050
      TEMPO 2201/2202 -TSRA BKN050CB
     FM220300 29006KT P6SM BKN100
     FM221300 31012G20KT P6SM SCT050
     FM222100 31013KT P6SM SKC=



000
FTUS41 KPHI 220000 CCA
TAFRDG
TAF COR
KRDG 220057Z 2201/2224 20005KT P6SM FEW025 BKN050
      TEMPO 2201/2202 VRB20G30KT -TSRA BKN050CB
     FM220300 29006KT P6SM BKN100
     FM221300 31012G20KT P6SM SCT050
     FM222100 31013KT P6SM SKC=



000
FTUS41 KPHI 212300
TAFACY
TAF
KACY 212333Z 2200/2224 11005KT P6SM FEW025 BKN200
     FM220700 27006KT P6SM SKC
     FM221300 30012G22KT P6SM FEW050
     FM222200 30007KT P6SM SKC=



000
FTUS41 KPHI 212300
TAFPNE
TAF
KPNE 212333Z 2200/2224 23005KT P6SM FEW025 BKN200
     FM220400 27007KT P6SM SCT050
     FM221300 32012G20KT P6SM FEW050
     FM222300 33008KT P6SM SKC=



000
FTUS41 KPHI 212300
TAFPHL
TAF
KPHL 212333Z 2200/2306 14005KT P6SM FEW025 BKN200
     FM220400 27007KT P6SM SCT050
     FM221300 32012G20KT P6SM FEW050
     FM222300 33011KT P6SM SKC=



000
FTUS41 KPHI 212300
TAFTTN
TAF
KTTN 212333Z 2200/2224 21005KT P6SM FEW025 BKN200
     FM220400 27007KT P6SM SCT050
     FM221300 32012G20KT P6SM FEW050
     FM222300 33008KT P6SM SKC=



000
FTUS41 KPHI 212300
TAFILG
TAF
KILG 212333Z 2200/2224 18007KT P6SM FEW025 BKN200
     FM220400 27007KT P6SM SCT050
     FM221300 30012G20KT P6SM FEW050
     FM222200 32010KT P6SM SKC=



000
FTUS41 KPHI 212300
TAFMIV
TAF
KMIV 212333Z 2200/2224 00000KT P6SM SCT200
     FM220600 27006KT P6SM SKC
     FM221300 30012G22KT P6SM FEW050
     FM222200 31005KT P6SM SKC=



000
FTUS41 KPHI 212300
TAFRDG
TAF
KRDG 212333Z 2200/2224 20005KT P6SM FEW025 BKN050
      TEMPO 2200/2203 -SHRA
     FM220300 29006KT P6SM BKN100
     FM221300 31012G20KT P6SM SCT050
     FM222100 31013KT P6SM SKC=



000
FTUS41 KPHI 212300
TAFABE
TAF
KABE 212333Z 2200/2224 VRB03KT P6SM FEW025 BKN200
     FM220100 23005KT P6SM BKN040
      TEMPO 2201/2203 -SHRA
     FM220400 29006KT P6SM BKN100
     FM221300 30012G20KT P6SM SCT050
     FM222100 31013KT P6SM SKC=



000
FTUS41 KPHI 212100 AAA
TAFTTN
TAF AMD
KTTN 212115Z 2121/2218 VRB03KT P6SM FEW025 BKN200
      TEMPO 2121/2123 BKN025
     FM220400 27007KT P6SM SCT050
     FM221300 29012G20KT P6SM FEW050
     FM221700 31014G22KT P6SM FEW050=



000
FTUS41 KPHI 212000 AAA
TAFPHL
TAF AMD
KPHL 212057Z 2121/2224 14005KT P6SM FEW025 BKN200
     FM220400 27007KT P6SM SCT050
     FM221300 29012G20KT P6SM FEW050
     FM221700 31014G22KT P6SM FEW050=



000
FTUS41 KPHI 211900 AAA
TAFACY
TAF AMD
KACY 211945Z 2120/2218 33010KT P6SM FEW020 BKN045
     FM212300 22005KT P6SM FEW025 BKN200
     FM220700 27006KT P6SM SKC
     FM221300 30012G22KT P6SM FEW050=



000
FTUS41 KPHI 211900 AAA
TAFMIV
TAF AMD
KMIV 211944Z 2120/2218 VRB04KT P6SM FEW012 BKN200
     FM212300 VRB02KT P6SM SCT200
     FM220600 27006KT P6SM SKC
     FM221300 30012G22KT P6SM FEW050=



000
FTUS41 KPHI 211700
TAFILG
TAF
KILG 211721Z 2118/2218 30004KT P6SM SCT020 BKN200
      TEMPO 2118/2119 BKN020
     FM212000 23005KT P6SM FEW025 BKN200
     FM220400 27007KT P6SM SCT050
     FM221300 30012G20KT P6SM FEW050
     FM221700 32012G22KT P6SM FEW050=



000
FTUS41 KPHI 211700
TAFRDG
TAF
KRDG 211721Z 2118/2218 VRB03KT P6SM FEW025 BKN200
     FM220100 23005KT P6SM BKN050
      TEMPO 2201/2203 -SHRA
     FM220300 29006KT P6SM BKN100
     FM221300 31012G20KT P6SM SCT050=



000
FTUS41 KPHI 211700
TAFTTN
TAF
KTTN 211721Z 2118/2218 VRB03KT P6SM SCT012 BKN200
      TEMPO 2118/2119 BKN012
     FM212000 22005KT P6SM FEW025 BKN200
     FM220400 27007KT P6SM SCT050
     FM221300 29012G20KT P6SM FEW050
     FM221700 31014G22KT P6SM FEW050=



000
FTUS41 KPHI 211700
TAFPNE
TAF
KPNE 211721Z 2118/2218 VRB03KT P6SM SCT015 BKN200
      TEMPO 2118/2119 BKN015
     FM212000 23005KT P6SM FEW025 BKN200
     FM220400 27007KT P6SM SCT050
     FM221300 29012G20KT P6SM FEW050
     FM221700 31014G22KT P6SM FEW050=



000
FTUS41 KPHI 211700
TAFACY
TAF
KACY 211721Z 2118/2218 32007KT P6SM BKN020 OVC200
      TEMPO 2118/2122 SCT020 OVC200
     FM212200 24005KT P6SM FEW018 BKN200
     FM220700 27006KT P6SM SKC
     FM221300 30012G22KT P6SM FEW050=



000
FTUS41 KPHI 211700
TAFMIV
TAF
KMIV 211721Z 2118/2218 32007KT P6SM OVC012
     FM212100 28005KT P6SM FEW020 BKN200
     FM212300 VRB02KT P6SM SCT200
     FM220600 27006KT P6SM SKC
     FM221300 30012G22KT P6SM FEW050=



000
FTUS41 KPHI 211700
TAFABE
TAF
KABE 211721Z 2118/2218 VRB03KT P6SM FEW025 BKN200
     FM220100 23005KT P6SM BKN040
      TEMPO 2202/2204 -SHRA
     FM220400 29006KT P6SM BKN100
     FM221300 30012G20KT P6SM SCT050=



000
FTUS41 KPHI 211700
TAFPHL
TAF
KPHL 211721Z 2118/2224 33003KT P6SM SCT015 BKN200
      TEMPO 2118/2119 BKN015
     FM212000 23005KT P6SM FEW025 BKN200
     FM220400 27007KT P6SM SCT050
     FM221300 29012G20KT P6SM FEW050
     FM221700 31014G22KT P6SM FEW050=



000
FTUS41 KPHI 211600 AAB
TAFTTN
TAF AMD
KTTN 211648Z 2117/2212 VRB02KT P6SM OVC008
     FM211900 25005KT P6SM FEW008 OVC200
     FM220400 28005KT P6SM SCT050=



000
FTUS41 KPHI 211600 AAA
TAFPNE
TAF AMD
KPNE 211642Z 2117/2212 VRB03KT P6SM BKN010 OVC200
     FM211800 23005KT P6SM SCT015 BKN200
     FM220500 28008KT P6SM SCT050
     FM221100 30012G20KT P6SM SCT050=



000
FTUS41 KPHI 211600 AAC
TAFPHL
TAF AMD
KPHL 211641Z 2117/2218 VRB03KT P6SM BKN010 OVC200
     FM211800 23005KT P6SM SCT015 BKN200
     FM220500 28008KT P6SM SCT050
     FM221200 30012G20KT P6SM SCT050=



000
FTUS41 KPHI 211600 AAC
TAFACY
TAF AMD
KACY 211622Z 2116/2212 10004KT P6SM BKN012 OVC070
     FM211800 VRB04KT P6SM FEW012 BKN070
     FM212300 22005KT P6SM SCT070 BKN200
     FM220500 27007KT P6SM SCT050=



000
FTUS41 KPHI 211600 AAC
TAFRDG
TAF AMD
KRDG 211617Z 2116/2212 VRB03KT P6SM SCT025 BKN050
     FM211700 24005KT P6SM SCT200
      TEMPO 2122/2202 -SHRA
     FM220200 27005KT P6SM SCT050=



000
FTUS41 KPHI 211500 AAB
TAFACY
TAF AMD
KACY 211504Z 2115/2212 VRB04KT P6SM FEW010 OVC070
     FM211900 32005KT P6SM SCT030 BKN070
     FM212300 23005KT P6SM SCT070 BKN200
     FM220500 27007KT P6SM SCT050=



000
FTUS41 KPHI 211500 AAA
TAFMIV
TAF AMD
KMIV 211503Z 2115/2212 VRB03KT P6SM OVC007
      TEMPO 2116/2118 SCT007 OVC020
     FM211800 27004KT P6SM SCT020 BKN200
     FM212300 VRB03KT P6SM SCT050=



000
FTUS41 KPHI 211500 AAB
TAFPHL
TAF AMD
KPHL 211501Z 2115/2218 VRB04KT 6SM HZ BKN009 OVC015
     FM211700 20004KT P6SM SCT015 BKN200
     FM211900 23008KT P6SM SCT250
     FM220500 28008KT P6SM SCT050
     FM221200 30012G20KT P6SM SCT050=



000
FTUS41 KPHI 211400 AAA
TAFABE
TAF AMD
KABE 211434Z 2115/2212 VRB02KT 6SM BR OVC005
     FM211600 VRB04KT P6SM FEW005 BKN200
     FM211800 23007KT P6SM BKN250
      TEMPO 2121/2201 -SHRA
     FM220300 27005KT P6SM SCT050=



000
FTUS41 KPHI 211400 AAB
TAFRDG
TAF AMD
KRDG 211404Z 2114/2212 VRB02KT P6SM OVC004
     FM211800 23006KT P6SM FEW250
      TEMPO 2121/2201 -SHRA
     FM220200 27005KT P6SM SCT050=



000
FTUS41 KPHI 211300 AAA
TAFACY
TAF AMD
KACY 211344Z 2114/2212 36005KT 3/4SM BR OVC003
     FM211600 08005KT P6SM SCT020 BKN200
     FM211900 21007KT P6SM BKN250
     FM220500 27007KT P6SM SCT050=



000
FTUS41 KPHI 211300 AAA
TAFTTN
TAF AMD
KTTN 211326Z 2113/2212 35004KT 1SM BR OVC002
      TEMPO 2113/2115 4SM BR BKN004
     FM211600 18005KT P6SM SCT020 BKN100
     FM211900 25005KT P6SM SCT250
     FM220400 28005KT P6SM SCT050=



000
FTUS41 KPHI 211200 AAA
TAFILG
TAF AMD
KILG 211236Z 2113/2212 34005KT P6SM OVC015
      TEMPO 2113/2115 SCT015 OVC025
     FM211600 21005KT P6SM SCT015 BKN200
     FM211800 24007KT P6SM BKN250
     FM220500 28008KT P6SM SCT050=



000
FTUS41 KPHI 211200 AAA
TAFRDG
TAF AMD
KRDG 211226Z 2112/2212 00000KT 3SM BR OVC002
      TEMPO 2112/2115 6SM BR OVC010
     FM211500 18005KT P6SM SCT025 BKN100
     FM211800 23006KT P6SM FEW250
      TEMPO 2121/2201 -SHRA
     FM220200 27005KT P6SM SCT050=



000
FTUS41 KPHI 211200 AAA
TAFPHL
TAF AMD
KPHL 211205Z 2112/2218 02005KT P6SM SCT007 BKN015
      TEMPO 2112/2115 5SM BR BKN007
     FM211600 20005KT P6SM SCT020 BKN200
     FM211900 23008KT P6SM SCT250
     FM220500 28008KT P6SM SCT050
     FM221200 30012G20KT P6SM SCT050=



000
FTUS41 KPHI 211100
TAFPNE
TAF
KPNE 211123Z 2112/2212 34005KT 6SM BR SCT004 BKN015
      TEMPO 2112/2114 4SM BR BKN005
     FM211600 20005KT P6SM SCT020 BKN200
     FM211900 25006KT P6SM SCT250
     FM220500 28006KT P6SM SCT050=



000
FTUS41 KPHI 211100
TAFRDG
TAF
KRDG 211123Z 2112/2212 VRB03KT 6SM BR SCT008 OVC015
      TEMPO 2112/2115 3SM BR OVC005
     FM211500 18005KT P6SM SCT025 BKN100
     FM211800 23006KT P6SM FEW250
      TEMPO 2121/2201 -SHRA
     FM220200 27005KT P6SM SCT050=



000
FTUS41 KPHI 211100
TAFTTN
TAF
KTTN 211123Z 2112/2212 35005KT 6SM BR SCT004 BKN015
      TEMPO 2112/2114 4SM BR BKN002
     FM211600 18005KT P6SM SCT020 BKN100
     FM211900 25005KT P6SM SCT250
     FM220400 28005KT P6SM SCT050=



000
FTUS41 KPHI 211100
TAFABE
TAF
KABE 211123Z 2112/2212 VRB03KT 6SM BR SCT005 BKN015
      TEMPO 2112/2115 3SM BR BKN005
     FM211600 19005KT P6SM SCT025 BKN100
     FM211800 23007KT P6SM BKN250
      TEMPO 2121/2201 -SHRA
     FM220300 27005KT P6SM SCT050=



000
FTUS41 KPHI 211100
TAFMIV
TAF
KMIV 211123Z 2112/2212 VRB02KT 6SM BR SCT003 BKN025
      TEMPO 2112/2116 3SM BR BKN003
     FM211600 20005KT P6SM SCT020 BKN200
     FM211800 26005KT P6SM BKN250
     FM212300 VRB03KT P6SM SCT050=



000
FTUS41 KPHI 211100
TAFACY
TAF
KACY 211123Z 2112/2212 VRB04KT 6SM BR SCT003 BKN015
      TEMPO 2112/2116 3SM BR BKN003
     FM211600 08005KT P6SM SCT020 BKN200
     FM211900 21007KT P6SM BKN250
     FM220500 27007KT P6SM SCT050=



000
FTUS41 KPHI 211100
TAFPHL
TAF
KPHL 211123Z 2112/2218 36005KT 6SM BR SCT003 BKN015
      TEMPO 2112/2115 4SM BR BKN003
     FM211600 20005KT P6SM SCT020 BKN200
     FM211900 23008KT P6SM SCT250
     FM220500 28008KT P6SM SCT050
     FM221200 30012G20KT P6SM SCT050=



000
FTUS41 KPHI 211100
TAFILG
TAF
KILG 211123Z 2112/2212 36005KT P6SM SCT004 BKN015
      TEMPO 2112/2115 4SM BR BKN004
     FM211600 21005KT P6SM SCT020 BKN200
     FM211800 24007KT P6SM BKN250
     FM220500 28008KT P6SM SCT050=



000
FTUS41 KPHI 211000 AAB
TAFMIV
TAF AMD
KMIV 211038Z 2111/2206 VRB02KT 6SM BR BKN006
      TEMPO 2111/2114 3SM BR OVC002
     FM211500 20005KT P6SM SCT020 BKN200
     FM211800 26005KT P6SM BKN250
     FM212300 VRB03KT P6SM SCT050=



000
FTUS41 KPHI 211000 AAB
TAFPNE
TAF AMD
KPNE 211001Z 2110/2206 VRB03KT P6SM SCT005 BKN012
      TEMPO 2110/2112 3SM BR BKN004
     FM211200 VRB02KT 6SM BR SCT020
      TEMPO 2112/2115 4SM BR BKN020
     FM211500 20005KT P6SM SCT020 BKN200
     FM211900 25006KT P6SM SCT250
     FM220500 28006KT P6SM SCT050=



000
FTUS41 KPHI 210900 AAB
TAFILG
TAF AMD
KILG 210943Z 2110/2206 VRB03KT P6SM SCT005 BKN012
      TEMPO 2110/2112 3SM BR BKN004
     FM211200 VRB02KT 6SM BR SCT020
      TEMPO 2112/2115 4SM BR BKN020
     FM211500 21005KT P6SM SCT020 BKN200
     FM211800 24007KT P6SM BKN250
     FM220500 28008KT P6SM SCT050=



000
FTUS41 KPHI 210900 AAB
TAFPHL
TAF AMD
KPHL 210937Z 2110/2212 VRB03KT P6SM SCT005 BKN012
      TEMPO 2110/2112 3SM BR BKN004
     FM211200 VRB02KT 6SM BR SCT020
      TEMPO 2112/2115 4SM BR BKN020
     FM211500 20005KT P6SM SCT020 BKN200
     FM211900 23008KT P6SM SCT250
     FM220500 28008KT P6SM SCT050=



000
FTUS41 KPHI 210900 AAC
TAFABE
TAF AMD
KABE 210933Z 2110/2206 VRB02KT 4SM BR BKN005
      TEMPO 2110/2112 1SM BR
     FM211200 VRB03KT 6SM BR SCT025
      TEMPO 2112/2115 2SM BR BKN025
     FM211500 19005KT P6SM SCT025 BKN100
     FM211800 23007KT P6SM BKN250
     FM220300 27005KT P6SM SCT050=



000
FTUS41 KPHI 210900 AAC
TAFRDG
TAF AMD
KRDG 210929Z 2109/2206 VRB02KT 4SM BR BKN003
      TEMPO 2109/2112 1SM BR
     FM211200 VRB03KT 6SM BR SCT020
      TEMPO 2112/2115 2SM BR BKN020
     FM211500 18005KT P6SM SCT025 BKN100
     FM211800 23006KT P6SM FEW250
     FM220200 27005KT P6SM SCT050=



000
FTUS41 KPHI 210900 AAA
TAFTTN
TAF AMD
KTTN 210916Z 2109/2206 VRB02KT 4SM BR BKN003
      TEMPO 2112/2115 SCT003 BKN008
     FM211500 18005KT P6SM SCT020 BKN100
     FM211900 25005KT P6SM SCT250
     FM220400 28005KT P6SM SCT050=



000
FTUS41 KPHI 210900 AAB
TAFACY
TAF AMD
KACY 210903Z 2109/2206 VRB04KT 5SM BR SCT004 BKN015
      TEMPO 2109/2112 2SM -DZ BR OVC004
     FM211500 06005KT P6SM SCT020 BKN200
     FM211900 21007KT P6SM BKN250
     FM220500 27005KT P6SM SCT050=



000
FTUS41 KPHI 210900 AAB
TAFABE
TAF AMD
KABE 210902Z 2109/2206 VRB02KT 1/4SM FG BKN006
     FM211200 VRB03KT 6SM BR SCT025
      TEMPO 2112/2115 2SM BR BKN025
     FM211500 19005KT P6SM SCT025 BKN100
     FM211800 23007KT P6SM BKN250
     FM220300 27005KT P6SM SCT050=



000
FTUS41 KPHI 210900 AAB
TAFRDG
TAF AMD
KRDG 210901Z 2109/2206 VRB02KT 1/2SM FG BKN003
     FM211200 VRB03KT 6SM BR SCT020
      TEMPO 2112/2115 2SM BR BKN020
     FM211500 18005KT P6SM SCT025 BKN100
     FM211800 23006KT P6SM FEW250
     FM220200 27005KT P6SM SCT050=



000
FTUS41 KPHI 210800 AAA
TAFABE
TAF AMD
KABE 210824Z 2108/2206 VRB02KT 4SM BR SCT015
      TEMPO 2109/2112 2SM BR BKN012
     FM211200 VRB03KT 6SM BR SCT025
      TEMPO 2112/2115 2SM BR BKN025
     FM211500 19005KT P6SM SCT025 BKN100
     FM211800 23007KT P6SM BKN250
     FM220300 27005KT P6SM SCT050=



000
FTUS41 KPHI 210800 AAA
TAFRDG
TAF AMD
KRDG 210819Z 2108/2206 VRB02KT 6SM BR SCT004
      TEMPO 2108/2112 3SM BR BKN004
     FM211200 VRB03KT 6SM BR SCT020
      TEMPO 2112/2115 2SM BR BKN020
     FM211500 18005KT P6SM SCT025 BKN100
     FM211800 23006KT P6SM FEW250
     FM220200 27005KT P6SM SCT050=



000
FTUS41 KPHI 210800 AAA
TAFPNE
TAF AMD
KPNE 210817Z 2108/2206 VRB03KT P6SM SCT015
      TEMPO 2108/2112 SCT008 BKN015
     FM211200 VRB02KT 6SM BR SCT020
      TEMPO 2112/2115 4SM BR BKN020
     FM211500 20005KT P6SM SCT020 BKN200
     FM211900 25006KT P6SM SCT250
     FM220500 28006KT P6SM SCT050=



000
FTUS41 KPHI 210800 AAA
TAFPHL
TAF AMD
KPHL 210816Z 2108/2212 VRB03KT P6SM SCT015
      TEMPO 2108/2112 SCT008 BKN015
     FM211200 VRB02KT 6SM BR SCT020
      TEMPO 2112/2115 4SM BR BKN020
     FM211500 20005KT P6SM SCT020 BKN200
     FM211900 23008KT P6SM SCT250
     FM220500 28008KT P6SM SCT050=



000
FTUS41 KPHI 210800 AAA
TAFILG
TAF AMD
KILG 210813Z 2108/2206 VRB03KT P6SM SCT012
      TEMPO 2109/2112 BKN012
     FM211200 VRB02KT 6SM BR SCT020
      TEMPO 2112/2115 4SM BR BKN020
     FM211500 21005KT P6SM SCT020 BKN200
     FM211800 24007KT P6SM BKN250
     FM220500 28008KT P6SM SCT050=



000
FTUS41 KPHI 210800 CCA
TAFACY
TAF COR
KACY 210811Z 2108/2206 VRB04KT 6SM BR SCT004 BKN015
      TEMPO 2108/2112 4SM -DZ BR OVC004
     FM211500 06005KT P6SM SCT020 BKN200
     FM211900 21007KT P6SM BKN250
     FM220500 27005KT P6SM SCT050=



000
FTUS41 KPHI 210800 AAA
TAFMIV
TAF AMD
KMIV 210811Z 2108/2206 VRB02KT 6SM BR BKN006
      TEMPO 2109/2113 4SM BR OVC003
     FM211500 20005KT P6SM SCT020 BKN200
     FM211800 26005KT P6SM BKN250
     FM212300 VRB03KT P6SM SCT050=



000
FTUS41 KPHI 210800 CCA
TAFMIV
TAF COR
KMIV 210811Z 2108/2206 VRB02KT 6SM BR BKN006
      TEMPO 2108/2112 4SM BR OVC003
     FM211500 20005KT P6SM SCT020 BKN200
     FM211800 26005KT P6SM BKN250
     FM212300 VRB03KT P6SM SCT050=



000
FTUS41 KPHI 210800 AAA
TAFACY
TAF AMD
KACY 210810Z 2108/2206 VRB04KT 6SM BR SCT004 BKN015
      TEMPO 2110/2112 4SM -DZ BR OVC004
     FM211500 06005KT P6SM SCT020 BKN200
     FM211900 21007KT P6SM BKN250
     FM220500 27005KT P6SM SCT050=



000
FTUS41 KPHI 210500
TAFMIV
TAF
KMIV 210530Z 2106/2206 VRB02KT P6SM OVC006
      TEMPO 2106/2109 SCT006 BKN009
     FM210900 VRB02KT 4SM BR BKN009
      TEMPO 2109/2113 2SM BR OVC004
     FM211500 20005KT P6SM SCT020 BKN200
     FM211800 26005KT P6SM BKN250
     FM212300 VRB03KT P6SM SCT050=



000
FTUS41 KPHI 210500
TAFTTN
TAF
KTTN 210530Z 2106/2206 VRB03KT P6SM BKN012
      TEMPO 2106/2109 BKN009
     FM210900 VRB02KT 4SM BR BKN009
      TEMPO 2112/2115 BKN015
     FM211500 18005KT P6SM SCT020 BKN100
     FM211900 25005KT P6SM SCT250
     FM220400 28005KT P6SM SCT050=



000
FTUS41 KPHI 210500
TAFRDG
TAF
KRDG 210530Z 2106/2206 VRB03KT P6SM SCT015
     FM210800 VRB02KT 4SM BR SCT015
      TEMPO 2110/2113 2SM BR BKN015
     FM211500 18005KT P6SM SCT025 BKN100
     FM211800 23006KT P6SM FEW250
     FM220200 27005KT P6SM SCT050=



000
FTUS41 KPHI 210500
TAFPNE
TAF
KPNE 210530Z 2106/2206 VRB03KT P6SM BKN012
      TEMPO 2106/2109 BKN009
     FM210900 VRB02KT 4SM BR BKN009
      TEMPO 2112/2115 BKN015
     FM211500 20005KT P6SM SCT020 BKN200
     FM211900 25006KT P6SM SCT250
     FM220500 28006KT P6SM SCT050=



000
FTUS41 KPHI 210500
TAFABE
TAF
KABE 210530Z 2106/2206 VRB03KT P6SM SCT015
      TEMPO 2106/2109 BKN015
     FM210900 VRB02KT 4SM BR BKN015
      TEMPO 2110/2113 2SM BR BKN010
     FM211500 19005KT P6SM SCT025 BKN100
     FM211800 23007KT P6SM BKN250
     FM220300 27005KT P6SM SCT050=



000
FTUS41 KPHI 210500
TAFACY
TAF
KACY 210530Z 2106/2206 VRB04KT P6SM BKN009
      TEMPO 2106/2108 SCT009 BKN025
     FM210800 VRB02KT 4SM BR BKN008
      TEMPO 2108/2112 2SM -DZ BR OVC004
     FM211500 06005KT P6SM SCT020 BKN200
     FM211900 21007KT P6SM BKN250
     FM220500 27005KT P6SM SCT050=



000
FTUS41 KPHI 210500
TAFPHL
TAF
KPHL 210530Z 2106/2212 VRB03KT P6SM BKN012
      TEMPO 2106/2109 BKN009
     FM210900 VRB02KT 4SM BR BKN009
      TEMPO 2112/2115 BKN015
     FM211500 20005KT P6SM SCT020 BKN200
     FM211900 23008KT P6SM SCT250
     FM220500 28008KT P6SM SCT050=



000
FTUS41 KPHI 210500
TAFILG
TAF
KILG 210530Z 2106/2206 VRB03KT P6SM BKN012
      TEMPO 2106/2109 BKN009
     FM210900 VRB02KT 4SM BR BKN009
      TEMPO 2112/2115 BKN015
     FM211500 21005KT P6SM SCT020 BKN200
     FM211800 24007KT P6SM BKN250
     FM220500 28008KT P6SM SCT050=



000
FTUS41 KPHI 210300 AAA
TAFABE
TAF AMD
KABE 210303Z 2103/2124 VRB03KT P6SM SCT015
      TEMPO 2103/2106 BKN015
     FM210600 VRB02KT 4SM BR BKN020
     FM211000 VRB02KT 2SM BR BKN012
     FM211500 21005KT P6SM SCT025 BKN100
     FM211800 25007KT P6SM BKN250=



000
FTUS41 KPHI 210300 AAB
TAFMIV
TAF AMD
KMIV 210303Z 2103/2124 VRB02KT P6SM SCT009 BKN060
      TEMPO 2103/2106 OVC009
     FM210600 VRB02KT 4SM BR BKN020
     FM210800 VRB02KT 2SM BR BKN010
     FM211500 20005KT P6SM SCT020 BKN200
     FM211800 26005KT P6SM BKN250=



000
FTUS41 KPHI 210300 AAA
TAFRDG
TAF AMD
KRDG 210303Z 2103/2124 VRB03KT P6SM SCT015
      TEMPO 2103/2106 BKN015
     FM210600 VRB02KT 4SM BR BKN025
     FM211000 VRB02KT 2SM BR BKN012
     FM211500 21005KT P6SM SCT025 BKN100
     FM211800 26006KT P6SM FEW250=



000
FTUS41 KPHI 210300 AAA
TAFILG
TAF AMD
KILG 210302Z 2103/2124 VRB03KT P6SM SCT015
      TEMPO 2103/2106 BKN015
     FM210600 16003KT 6SM BR BKN025
     FM210900 18002KT 4SM BR BKN015
     FM211400 21005KT P6SM SCT020 BKN200
     FM211800 26007KT P6SM BKN250=



000
FTUS41 KPHI 210300 AAA
TAFPNE
TAF AMD
KPNE 210302Z 2103/2124 VRB03KT P6SM SCT015
      TEMPO 2103/2106 BKN015
     FM210600 VRB03KT 5SM BR BKN025
     FM210900 VRB02KT 3SM BR BKN012
     FM211500 23005KT P6SM SCT020 BKN200
     FM211800 28006KT P6SM SCT250=



000
FTUS41 KPHI 210300 AAA
TAFPHL
TAF AMD
KPHL 210301Z 2103/2206 VRB03KT P6SM SCT015
      TEMPO 2103/2106 BKN015
     FM210600 VRB03KT 6SM BR BKN025
     FM210900 VRB02KT 4SM BR BKN015
     FM211400 21005KT P6SM SCT020 BKN200
     FM211800 28006KT P6SM SCT250=



000
FTUS41 KPHI 210300 AAA
TAFTTN
TAF AMD
KTTN 210301Z 2103/2124 VRB03KT P6SM SCT015
      TEMPO 2103/2106 BKN015
     FM210600 VRB03KT 5SM BR BKN020
     FM210900 VRB02KT 3SM BR BKN012
     FM211500 23005KT P6SM SCT020 BKN100
     FM211800 28005KT P6SM FEW250=



000
FTUS41 KPHI 210100 AAB
TAFACY
TAF AMD
KACY 210156Z 2102/2124 12009KT P6SM SCT009 BKN025
      TEMPO 2102/2106 BKN009
     FM210600 13005KT 4SM BR BKN015
     FM210800 VRB02KT 3SM BR BKN008
      TEMPO 2108/2112 2SM -DZ BR OVC004
     FM211400 20005KT P6SM SCT020 BKN200
     FM211800 19007KT P6SM BKN250=



000
FTUS41 KPHI 210100 AAA
TAFMIV
TAF AMD
KMIV 210142Z 2102/2124 13008KT P6SM SCT040 BKN060
      TEMPO 2102/2104 OVC015
     FM210400 VRB02KT 4SM BR BKN020
     FM210800 VRB02KT 2SM BR BKN010
     FM211500 20005KT P6SM SCT020 BKN200
     FM211800 26005KT P6SM BKN250=



000
FTUS41 KPHI 210100 AAA
TAFACY
TAF AMD
KACY 210103Z 2101/2124 12009KT P6SM SCT025 BKN080
      TEMPO 2101/2102 BKN025
     FM210600 13005KT 4SM BR BKN020
     FM210800 VRB02KT 3SM BR BKN008
      TEMPO 2108/2112 2SM -DZ BR OVC004
     FM211400 20005KT P6SM SCT020 BKN200
     FM211800 19007KT P6SM BKN250=



000
FTUS41 KPHI 202300
TAFPHL
TAF
KPHL 202337Z 2100/2206 14006KT P6SM SCT040
     FM210600 VRB03KT 6SM BR BKN025
     FM210900 VRB02KT 4SM BR BKN015
     FM211400 21005KT P6SM SCT020 BKN200
     FM211800 28006KT P6SM SCT250=



000
FTUS41 KPHI 202300
TAFILG
TAF
KILG 202337Z 2100/2124 16008KT P6SM SCT040
     FM210600 16003KT 6SM BR BKN025
     FM210900 18002KT 4SM BR BKN015
     FM211400 21005KT P6SM SCT020 BKN200
     FM211800 26007KT P6SM BKN250=



000
FTUS41 KPHI 202300
TAFABE
TAF
KABE 202337Z 2100/2124 18005KT P6SM SCT040
     FM210600 VRB02KT 4SM BR BKN020
     FM211000 VRB02KT 2SM BR BKN012
     FM211500 21005KT P6SM SCT025 BKN100
     FM211800 25007KT P6SM BKN250=



000
FTUS41 KPHI 202300
TAFPNE
TAF
KPNE 202337Z 2100/2124 14005KT P6SM SCT040
     FM210500 VRB03KT 5SM BR BKN025
     FM210900 VRB02KT 3SM BR BKN012
     FM211500 23005KT P6SM SCT020 BKN200
     FM211800 28006KT P6SM SCT250=



000
FTUS41 KPHI 202300
TAFMIV
TAF
KMIV 202337Z 2100/2124 13008KT P6SM SCT040 BKN060
     FM210400 VRB02KT 4SM BR BKN020
     FM210800 VRB02KT 2SM BR BKN010
     FM211500 20005KT P6SM SCT020 BKN200
     FM211800 26005KT P6SM BKN250=



000
FTUS41 KPHI 202300
TAFTTN
TAF
KTTN 202337Z 2100/2124 18005KT P6SM SCT040
     FM210500 VRB03KT 5SM BR BKN020
     FM210900 VRB02KT 3SM BR BKN012
     FM211500 23005KT P6SM SCT020 BKN100
     FM211800 28005KT P6SM FEW250=



000
FTUS41 KPHI 202300
TAFACY
TAF
KACY 202337Z 2100/2124 12009KT P6SM SCT025 BKN080
      TEMPO 2100/2102 BKN025
     FM210200 13005KT 4SM BR BKN020
     FM210800 VRB02KT 3SM BR BKN008
      TEMPO 2108/2112 2SM -DZ BR OVC004
     FM211400 20005KT P6SM SCT020 BKN200
     FM211800 19007KT P6SM BKN250=



000
FTUS41 KPHI 202300
TAFRDG
TAF
KRDG 202337Z 2100/2124 16007KT P6SM SCT040
     FM210600 VRB02KT 4SM BR BKN025
     FM211000 VRB02KT 2SM BR BKN012
     FM211500 21005KT P6SM SCT025 BKN100
     FM211800 26006KT P6SM FEW250=



000
FTUS41 KPHI 202200 AAC
TAFACY
TAF AMD
KACY 202219Z 2022/2118 14010KT P6SM BKN025 BKN080
      TEMPO 2022/2102 BKN025
     FM210200 13005KT 4SM BR BKN020
     FM210600 VRB02KT 3SM BR BKN008
      TEMPO 2108/2112 2SM -DZ BR OVC004
     FM211600 20005KT P6SM SCT020 BKN200=



000
FTUS41 KPHI 202100 AAB
TAFPHL
TAF AMD
KPHL 202109Z 2021/2124 14009KT P6SM SCT045
     FM210000 16005KT P6SM BKN040
     FM210600 VRB03KT 6SM BR BKN025
     FM210900 VRB02KT 4SM BR BKN015
     FM211400 21005KT P6SM SCT020 BKN200=



000
FTUS41 KPHI 202000 AAA
TAFPHL
TAF AMD
KPHL 202001Z 2020/2124 16009G15KT P6SM SCT045
     FM202200 16009KT P6SM SCT040
     FM210000 16005KT P6SM BKN040
     FM210600 VRB03KT 6SM BR BKN025
     FM210900 VRB02KT 4SM BR BKN015
     FM211400 21005KT P6SM SCT020 BKN200=



000
FTUS41 KPHI 201900 AAB
TAFACY
TAF AMD
KACY 201929Z 2019/2118 14010KT P6SM BKN035 BKN080
     FM210200 13005KT 4SM BR BKN020
     FM210600 VRB02KT 3SM BR BKN008
      TEMPO 2108/2112 2SM -DZ BR OVC004
     FM211600 20005KT P6SM SCT020 BKN200=



000
FTUS41 KPHI 201900 AAA
TAFACY
TAF AMD
KACY 201902Z 2019/2118 14012KT P6SM SCT030 BKN060
      TEMPO 2019/2021 BKN030
     FM210200 13005KT 4SM BR BKN020
     FM210600 VRB02KT 3SM BR BKN008
      TEMPO 2108/2112 2SM -DZ BR OVC004
     FM211600 20005KT P6SM SCT020 BKN200=



000
FTUS41 KPHI 201800 AAA
TAFMIV
TAF AMD
KMIV 201802Z 2018/2118 13010KT P6SM SCT040 BKN060
     FM210400 VRB02KT 4SM BR BKN020
     FM210800 VRB02KT 2SM BR BKN010
     FM211500 20005KT P6SM SCT020 BKN200=



000
FTUS41 KPHI 201800 AAA
TAFABE
TAF AMD
KABE 201802Z 2018/2118 18010G18KT P6SM SCT040
     FM210000 18005KT P6SM BKN040
     FM210600 VRB02KT 4SM BR BKN025
     FM211000 VRB02KT 2SM BR BKN012
     FM211500 21005KT P6SM SCT025 BKN100=



000
FTUS41 KPHI 201700
TAFRDG
TAF
KRDG 201720Z 2018/2118 18011KT P6SM SCT035
     FM210000 18005KT P6SM BKN040
     FM210600 VRB02KT 4SM BR BKN025
     FM211000 VRB02KT 2SM BR BKN012
     FM211500 21005KT P6SM SCT025 BKN100=



000
FTUS41 KPHI 201700
TAFACY
TAF
KACY 201720Z 2018/2118 15015KT P6SM SCT040 BKN060
     FM210200 13005KT 4SM BR BKN020
     FM210600 VRB02KT 3SM BR BKN008
      TEMPO 2108/2112 2SM -DZ BR OVC004
     FM211600 20005KT P6SM SCT020 BKN200=



000
FTUS41 KPHI 201700
TAFPNE
TAF
KPNE 201720Z 2018/2118 VRB05KT P6SM BKN045
      TEMPO 2018/2020 BKN045
     FM210000 16005KT P6SM BKN040
     FM210500 VRB03KT 5SM BR BKN025
     FM210900 VRB02KT 3SM BR BKN012
     FM211500 23005KT P6SM SCT020 BKN200=



000
FTUS41 KPHI 201700
TAFPHL
TAF
KPHL 201720Z 2018/2124 16007KT P6SM SCT040
      TEMPO 2018/2020 BKN045
     FM210000 16005KT P6SM BKN040
     FM210600 VRB03KT 6SM BR BKN025
     FM210900 VRB02KT 4SM BR BKN015
     FM211400 21005KT P6SM SCT020 BKN200=



000
FTUS41 KPHI 201700
TAFMIV
TAF
KMIV 201720Z 2018/2118 16012KT P6SM SCT040 BKN080
     FM210400 VRB02KT 4SM BR BKN020
     FM210800 VRB02KT 2SM BR BKN010
     FM211500 20005KT P6SM SCT020 BKN200=



000
FTUS41 KPHI 201700
TAFILG
TAF
KILG 201720Z 2018/2118 15013KT P6SM SKC
      TEMPO 2018/2020 BKN045
     FM210000 15005KT P6SM BKN040
     FM210600 16003KT 6SM BR BKN025
     FM210900 18002KT 4SM BR BKN015
     FM211400 21005KT P6SM SCT020 BKN200=



000
FTUS41 KPHI 201700
TAFABE
TAF
KABE 201720Z 2018/2118 20008G15KT P6SM SCT035
     FM210000 18005KT P6SM BKN040
     FM210600 VRB02KT 4SM BR BKN025
     FM211000 VRB02KT 2SM BR BKN012
     FM211500 21005KT P6SM SCT025 BKN100=



000
FTUS41 KPHI 201700
TAFTTN
TAF
KTTN 201720Z 2018/2118 20009G16KT P6SM SCT040
      TEMPO 2018/2020 BKN045
     FM210000 16005KT P6SM BKN040
     FM210500 VRB03KT 5SM BR BKN025
     FM210900 VRB02KT 3SM BR BKN012
     FM211500 23005KT P6SM SCT020 BKN100=



000
FTUS41 KPHI 201600 AAB
TAFACY
TAF AMD
KACY 201633Z 2017/2112 14013KT P6SM SCT025 BKN050
      TEMPO 2017/2019 BKN025
     FM201900 15008KT P6SM VCSH BKN050
     FM210600 11005KT P6SM BKN025
     FM210800 VRB02KT P6SM BKN012
     FM211000 VRB02KT 3SM BR BKN009=



000
FTUS41 KPHI 201600 AAA
TAFACY
TAF AMD
KACY 201614Z 2016/2112 14013KT P6SM FEW030 BKN090
     FM202000 15008KT P6SM VCSH BKN050
     FM210600 11005KT P6SM BKN025
     FM210800 VRB02KT P6SM BKN012
     FM211000 VRB02KT 3SM BR BKN009=



000
FTUS41 KPHI 201500 AAB
TAFPNE
TAF AMD
KPNE 201506Z 2015/2112 16009KT P6SM SCT030
     FM201700 18010KT P6SM FEW035 BKN090
     FM210200 15005KT P6SM BKN025
     FM210400 VRB03KT P6SM BKN012=



000
FTUS41 KPHI 201400 AAA
TAFABE
TAF AMD
KABE 201425Z 2014/2112 16005KT P6SM SCT025 BKN035
     FM201600 18009KT P6SM BKN090
     FM210200 15005KT P6SM SCT030
     FM210400 VRB02KT 4SM BR BKN025
     FM211000 VRB02KT 2SM BR BKN010=



000
FTUS41 KPHI 201400 AAA
TAFILG
TAF AMD
KILG 201424Z 2014/2112 13004KT P6SM FEW025
     FM201600 15009KT P6SM SCT030 BKN090
     FM210200 16005KT P6SM BKN025
     FM210500 VRB03KT P6SM OVC010=



000
FTUS41 KPHI 201300 AAA
TAFPNE
TAF AMD
KPNE 201353Z 2014/2112 10005KT P6SM SCT025
     FM201600 18007KT P6SM FEW035 BKN090
     FM210200 15005KT P6SM BKN025
     FM210400 VRB03KT P6SM BKN012=



000
FTUS41 KPHI 201300 AAA
TAFTTN
TAF AMD
KTTN 201333Z 2014/2112 12004KT P6SM SCT025
     FM201600 19008KT P6SM SCT035
     FM210200 15005KT P6SM BKN035
     FM210500 VRB03KT P6SM BKN025
     FM211000 VRB03KT P6SM BKN010=



000
FTUS41 KPHI 201200 AAA
TAFMIV
TAF AMD
KMIV 201240Z 2013/2112 VRB02KT 6SM BR SCT090
     FM201400 13006KT P6SM SCT030 BKN090
     FM210200 VRB03KT 5SM BR BKN025
     FM210400 VRB02KT 5SM BR BKN012
     FM211000 VRB02KT 2SM BR BKN008=



000
FTUS41 KPHI 201100
TAFPHL
TAF
KPHL 201130Z 2012/2118 VRB03KT 6SM HZ SCT025 BKN060
     FM201300 15007KT P6SM BKN035
     FM201700 19010KT P6SM BKN035
     FM210200 15005KT P6SM BKN025
     FM210500 VRB03KT P6SM OVC010
     FM211600 22006KT P6SM SCT015=



000
FTUS41 KPHI 201100
TAFACY
TAF
KACY 201130Z 2012/2112 VRB03KT P6SM BKN090
     FM201600 14011KT P6SM VCSH OVC025
     FM210000 11005KT P6SM BKN025
     FM210500 VRB02KT P6SM BKN012
     FM211000 VRB02KT 3SM BR BKN009=



000
FTUS41 KPHI 201100
TAFTTN
TAF
KTTN 201130Z 2012/2112 VRB04KT P6SM SCT025 BKN060
      TEMPO 2012/2016 BKN025
     FM201600 19010KT P6SM BKN035
     FM210200 15005KT P6SM BKN035
     FM210500 VRB03KT P6SM BKN025
     FM211000 VRB03KT P6SM BKN010=



000
FTUS41 KPHI 201100
TAFPNE
TAF
KPNE 201130Z 2012/2112 VRB03KT P6SM SCT025 BKN060
      TEMPO 2012/2016 BKN025
     FM201600 19008KT P6SM BKN035
     FM210200 15005KT P6SM BKN025
     FM210400 VRB03KT P6SM BKN012=



000
FTUS41 KPHI 201100
TAFILG
TAF
KILG 201130Z 2012/2112 10008KT P6SM SCT025 BKN035
      TEMPO 2012/2015 BKN025
     FM201500 16007KT P6SM OVC035
     FM201700 16011KT P6SM BKN035
     FM210200 15005KT P6SM BKN025
     FM210500 VRB03KT P6SM OVC010=



000
FTUS41 KPHI 201100
TAFMIV
TAF
KMIV 201130Z 2012/2112 VRB02KT 6SM BR SCT025 BKN090
     FM201400 14006KT P6SM VCSH BKN035
     FM210100 VRB03KT 5SM BR BKN020
     FM210400 VRB02KT 5SM BR BKN012
     FM211000 VRB02KT 2SM BR BKN008=



000
FTUS41 KPHI 201100
TAFRDG
TAF
KRDG 201130Z 2012/2112 VRB03KT P6SM SCT025 OVC035
      TEMPO 2012/2016 BKN025
     FM201600 19008KT P6SM SCT035
     FM202300 VRB03KT P6SM SCT030
     FM210500 VRB02KT 4SM BR BKN025
     FM211000 VRB02KT 2SM BR BKN018=



000
FTUS41 KPHI 201100
TAFABE
TAF
KABE 201130Z 2012/2112 VRB03KT P6SM SCT025 OVC035
      TEMPO 2012/2016 5SM BR OVC025
     FM201600 18009KT P6SM SCT035
     FM210200 15005KT P6SM SCT030
     FM210400 VRB02KT 4SM BR BKN025
     FM211000 VRB02KT 2SM BR BKN010=



000
FTUS41 KPHI 201000 AAA
TAFILG
TAF AMD
KILG 201008Z 2010/2106 10004KT P6SM SCT025 BKN035
      TEMPO 2010/2013 BKN025
     FM201300 16007KT P6SM OVC025
     FM201600 16011KT P6SM BKN035
     FM210100 13005KT P6SM OVC020
     FM210500 VRB03KT P6SM OVC012=



000
FTUS41 KPHI 200900 AAB
TAFMIV
TAF AMD
KMIV 200921Z 2009/2106 VRB02KT P6SM SCT025 BKN035
      TEMPO 2009/2013 4SM BR BKN025
     FM201300 11007KT P6SM OVC025
     FM201600 14009KT P6SM BKN035
      TEMPO 2021/2024 -SHRA
     FM210100 VRB03KT 5SM BR BKN020
     FM210400 VRB02KT 5SM BR BKN012=



000
FTUS41 KPHI 200900 AAA
TAFPNE
TAF AMD
KPNE 200921Z 2009/2106 VRB03KT P6SM SCT025 BKN035
      TEMPO 2010/2014 BKN025
     FM201400 17006KT P6SM BKN025
     FM201600 19008KT P6SM BKN035
     FM210200 15005KT P6SM BKN025
     FM210400 VRB03KT P6SM BKN015=



000
FTUS41 KPHI 200900 AAA
TAFACY
TAF AMD
KACY 200920Z 2009/2106 11005KT P6SM SCT025 BKN035
      TEMPO 2011/2013 5SM BR SCT015 BKN025
     FM201300 13004KT P6SM BKN035
     FM201600 14011KT P6SM VCSH OVC025
     FM210000 11005KT P6SM BKN012
     FM210500 VRB02KT P6SM BKN009=



000
FTUS41 KPHI 200900 AAA
TAFTTN
TAF AMD
KTTN 200910Z 2009/2106 VRB03KT P6SM SCT025 BKN035
      TEMPO 2009/2013 BKN025
     FM201400 17006KT P6SM BKN025
     FM201600 19010KT P6SM BKN035
     FM210200 15005KT P6SM BKN025
     FM210400 VRB03KT P6SM BKN015=



000
FTUS41 KPHI 200900 AAA
TAFRDG
TAF AMD
KRDG 200907Z 2009/2106 15002KT P6SM SCT025 OVC060
      TEMPO 2009/2013 BKN025
     FM201300 16005KT 5SM BR BKN015
     FM201600 19008KT P6SM SCT035
     FM202300 VRB03KT P6SM SCT020
     FM210400 VRB02KT 4SM BR BKN018=



000
FTUS41 KPHI 200900 AAA
TAFPHL
TAF AMD
KPHL 200901Z 2009/2112 10006KT P6SM SCT025 BKN035
      TEMPO 2009/2013 BKN025
     FM201500 16007KT P6SM BKN025
     FM201600 19011KT P6SM BKN035
     FM210200 15005KT P6SM OVC020
     FM210500 VRB03KT P6SM OVC009=



    US Dept of Commerce
    National Oceanic and Atmospheric Administration
    National Weather Service
    1325 East West Highway
    Silver Spring, MD 20910
    Page Author: NWS Internet Services Team
Disclaimer
Information Quality
Credits
Glossary
Privacy Policy
Freedom of Information Act (FOIA)
About Us
Career Opportunities